Poughkeepsie, NY (12603)

7:05 AM EST on February 01, 2015 (GMT -0500)
APRSWXNET LaGrange NY US | Change Station
CLOSE
Current Station
Personal Weather Station
Location: Poughkeepsie, NY
Elevation: 423 ft
Nearby Weather Stations
Active Advisory: Winter Storm Warning

Elev 423 ft 41.71 °N, 73.83 °W | Updated 41 minutes ago

Partly Cloudy
Partly Cloudy
17 °F
Feels Like 17 °F
N
2
Wind Variable Wind from South
Gusts 0.0 mph

Today
High -- | Low -- °F
--% Chance of Precip.
Yesterday
High -- | Low -- °F
Precip. -- in
7:07 AM 5:10 PM
Waxing Gibbous, 94% visible
Pressure 30.16 in
Visibility 10.0 miles
Clouds Mostly Cloudy 4800 ft
Windchill 17 °F
Dew Point 12 °F
Humidity 79%
Rainfall -999.00 in
Snow Depth Not available.
UV 0 out of 12
Pollen .10 out of 12
Air Quality Not available.
Flu Activity Not available.
METAR KPOU 011153Z 21005KT 10SM BKN048 M07/M13 A3016 RMK AO2 SLP211 T10671128 11061 21167 53002

More Conditions Fewer Conditions

Pressure 30.16 in
Visibility 10.0 miles
Clouds Mostly Cloudy 4800 ft
Windchill 17 °F
Dew Point 12 °F
Humidity 79%
Rainfall -999.00 in
Snow Depth Not available.
UV 0 out of 12
Pollen .10 out of 12
Air Quality Not available.
Flu Activity Not available.
METAR KPOU 011153Z 21005KT 10SM BKN048 M07/M13 A3016 RMK AO2 SLP211 T10671128 11061 21167 53002

More Conditions Fewer Conditions

10-Day Weather Forecast

Almanac

Astronomy

Feb. 01, 2015 Rise Set
Actual Time
Civil Twilight
Nautical Twilight
Astronomical Twilight
Moon
Length of Visible Light
Length of Day
Tomorrow will be .
, % of the Moon is Illuminated

Today's Extremes

State Highs State Lows

Community

WunderPhotos

Upload Photos

1,792,348 photos uploaded!

WunderBlogs® & News

Nearby

Air Quality

  Air Quality AQ Index Pollutant
Not available.

Snow Depth

Station Depth Elevation

Earthquake Activity

City Distance Mag. Time & Date
Minimum magnitude displayed is 2.5.

Coastal Water Temperatures

Place Temperature

Nearby Weather Stations